Time;durP1;ratioP1;P1;durP2;ratioP2;P2;SDS_P1;SDS_P2;PMS_P1;PMS_P2;Temp;Humidity;BMP_temperature;BMP_pressure;BME280_temperature;BME280_humidity;BME280_pressure;Samples;Min_cycle;Max_cycle;Signal;HPM_P1;HPM_P2
2021/08/09 00:01:37;;;;;;;1.98;0.98;;;;;;;;;;5089960;28;20202;-46
2021/08/09 00:04:04;;;;;;;2.53;1.20;;;;;;;;;;5095625;28;20193;-46
2021/08/09 00:06:30;;;;;;;0.90;0.90;;;;;;;;;;5091207;28;20181;-46
2021/08/09 00:08:56;;;;;;;1.88;1.15;;;;;;;;;;5081180;28;20178;-46
2021/08/09 00:11:22;;;;;;;1.08;0.93;;;;;;;;;;5075704;28;20549;-46
2021/08/09 00:13:48;;;;;;;1.75;1.00;;;;;;;;;;5079731;28;20178;-46
2021/08/09 00:16:14;;;;;;;0.95;0.95;;;;;;;;;;5078751;28;20580;-46
2021/08/09 00:18:45;;;;;;;1.00;0.90;;;;;;;;;;5075236;28;20206;-46
2021/08/09 00:21:11;;;;;;;2.03;1.00;;;;;;;;;;5093990;28;20166;-46
2021/08/09 00:23:37;;;;;;;1.25;0.98;;;;;;;;;;5078550;28;20261;-46
2021/08/09 00:26:03;;;;;;;1.10;1.00;;;;;;;;;;5075589;28;20626;-47
2021/08/09 00:28:29;;;;;;;0.98;0.98;;;;;;;;;;5076082;28;20228;-47
2021/08/09 00:30:55;;;;;;;1.45;0.90;;;;;;;;;;5087320;28;20184;-47
2021/08/09 00:33:21;;;;;;;2.88;1.02;;;;;;;;;;5075385;28;20216;-47
2021/08/09 00:35:47;;;;;;;1.50;0.95;;;;;;;;;;5090284;28;20186;-47
2021/08/09 00:38:13;;;;;;;2.35;0.95;;;;;;;;;;5093261;28;20231;-47
2021/08/09 00:40:39;;;;;;;2.25;1.00;;;;;;;;;;5075602;28;20193;-47
2021/08/09 00:43:05;;;;;;;3.03;1.02;;;;;;;;;;5076214;28;20186;-47
2021/08/09 00:45:31;;;;;;;1.58;0.90;;;;;;;;;;5080168;28;20170;-47
2021/08/09 00:47:57;;;;;;;1.98;1.10;;;;;;;;;;5094788;28;20222;-47
2021/08/09 00:50:23;;;;;;;3.15;0.90;;;;;;;;;;5095083;28;20264;-47
2021/08/09 00:52:49;;;;;;;1.40;1.25;;;;;;;;;;5095228;28;20201;-47
2021/08/09 00:55:15;;;;;;;3.75;1.20;;;;;;;;;;5090902;28;20206;-47
2021/08/09 00:57:41;;;;;;;3.05;1.00;;;;;;;;;;5082392;28;20301;-47
2021/08/09 01:00:07;;;;;;;1.10;1.00;;;;;;;;;;5079778;28;20239;-47
2021/08/09 01:02:33;;;;;;;0.82;0.82;;;;;;;;;;5095167;28;20273;-47
2021/08/09 01:05:01;;;;;;;0.90;0.90;;;;;;;;;;5094947;28;20217;-47
2021/08/09 01:07:27;;;;;;;1.52;0.90;;;;;;;;;;5094519;28;20173;-47
2021/08/09 01:09:56;;;;;;;1.98;1.05;;;;;;;;;;5095074;28;20289;-47
2021/08/09 01:12:49;;;;;;;1.70;0.98;;;;;;;;;;5091799;28;20450;-47
2021/08/09 01:15:29;;;;;;;1.05;0.90;;;;;;;;;;5078597;28;20208;-47
2021/08/09 01:17:58;;;;;;;1.77;0.95;;;;;;;;;;5094449;28;20206;-47
2021/08/09 01:20:24;;;;;;;1.20;1.10;;;;;;;;;;5094750;28;20169;-47
2021/08/09 01:22:56;;;;;;;0.80;0.75;;;;;;;;;;5094945;28;20466;-47
2021/08/09 01:25:40;;;;;;;0.80;0.75;;;;;;;;;;5094338;28;20170;-47
2021/08/09 01:28:07;;;;;;;0.98;0.82;;;;;;;;;;5091845;28;20209;-47
2021/08/09 01:30:33;;;;;;;0.80;0.80;;;;;;;;;;5081211;28;20549;-47
2021/08/09 01:32:59;;;;;;;0.82;0.82;;;;;;;;;;5094730;28;20170;-47
2021/08/09 01:35:26;;;;;;;0.80;0.80;;;;;;;;;;5094567;28;20564;-47
2021/08/09 01:37:56;;;;;;;0.80;0.80;;;;;;;;;;5091837;28;20193;-47
2021/08/09 01:40:23;;;;;;;0.82;0.70;;;;;;;;;;5074420;28;20193;-47
2021/08/09 01:42:49;;;;;;;1.15;0.90;;;;;;;;;;5083439;28;20230;-46
2021/08/09 01:45:16;;;;;;;1.65;0.80;;;;;;;;;;5088830;28;20178;-46
2021/08/09 01:47:42;;;;;;;1.02;0.80;;;;;;;;;;5087026;28;20194;-46
2021/08/09 01:50:10;;;;;;;0.80;0.80;;;;;;;;;;5083860;28;20583;-46
2021/08/09 01:52:36;;;;;;;0.80;0.77;;;;;;;;;;5082028;28;20234;-47
2021/08/09 01:55:03;;;;;;;2.05;0.93;;;;;;;;;;5083834;28;20446;-47
2021/08/09 01:57:29;;;;;;;1.15;0.93;;;;;;;;;;5085001;28;20729;-47
2021/08/09 01:59:55;;;;;;;1.80;0.80;;;;;;;;;;5085562;28;20201;-47
2021/08/09 02:02:22;;;;;;;2.35;0.90;;;;;;;;;;5094505;28;20190;-47
2021/08/09 02:04:48;;;;;;;0.98;0.77;;;;;;;;;;5094385;28;20189;-47
2021/08/09 02:07:14;;;;;;;0.80;0.77;;;;;;;;;;5093382;28;20209;-47
2021/08/09 02:09:40;;;;;;;0.80;0.80;;;;;;;;;;5085455;28;20182;-46
2021/08/09 02:12:07;;;;;;;2.88;0.90;;;;;;;;;;5086388;28;20509;-46
2021/08/09 02:14:36;;;;;;;0.80;0.80;;;;;;;;;;5083269;28;20193;-47
2021/08/09 02:17:08;;;;;;;1.65;0.90;;;;;;;;;;5076094;28;20574;-47
2021/08/09 02:19:38;;;;;;;0.70;0.70;;;;;;;;;;5078672;28;20198;-47
2021/08/09 02:22:17;;;;;;;1.83;1.02;;;;;;;;;;5094364;28;20188;-47
2021/08/09 02:24:50;;;;;;;1.00;0.82;;;;;;;;;;5091944;28;20177;-47
2021/08/09 02:27:19;;;;;;;1.30;0.80;;;;;;;;;;5074140;28;20642;-47
2021/08/09 02:29:47;;;;;;;1.30;1.02;;;;;;;;;;5084741;28;20174;-47
2021/08/09 02:32:14;;;;;;;2.05;0.90;;;;;;;;;;5075240;28;20182;-47
2021/08/09 02:34:41;;;;;;;1.08;0.80;;;;;;;;;;5079857;28;20194;-47
2021/08/09 02:37:07;;;;;;;0.90;0.90;;;;;;;;;;5095646;28;20289;-47
2021/08/09 02:39:33;;;;;;;2.25;0.90;;;;;;;;;;5088783;28;20261;-47
2021/08/09 02:42:00;;;;;;;0.70;0.70;;;;;;;;;;5091149;28;20628;-47
2021/08/09 02:44:27;;;;;;;1.23;0.77;;;;;;;;;;5089025;28;20206;-47
2021/08/09 02:46:54;;;;;;;0.80;0.80;;;;;;;;;;5093227;28;20447;-47
2021/08/09 02:49:20;;;;;;;1.00;0.90;;;;;;;;;;5091622;28;20189;-47
2021/08/09 02:51:47;;;;;;;2.42;1.00;;;;;;;;;;5095930;28;20480;-47
2021/08/09 02:54:15;;;;;;;1.30;1.02;;;;;;;;;;5079892;28;20170;-47
2021/08/09 02:56:41;;;;;;;1.55;1.10;;;;;;;;;;5079907;28;20198;-47
2021/08/09 02:59:07;;;;;;;2.78;0.93;;;;;;;;;;5080689;28;20486;-47
2021/08/09 03:01:34;;;;;;;0.85;0.85;;;;;;;;;;5089545;28;20284;-47
2021/08/09 03:04:00;;;;;;;1.35;0.98;;;;;;;;;;5097135;28;20178;-46
2021/08/09 03:06:27;;;;;;;1.00;0.90;;;;;;;;;;5085033;28;20175;-46
2021/08/09 03:08:54;;;;;;;2.75;1.02;;;;;;;;;;5095303;28;20253;-46
2021/08/09 03:11:20;;;;;;;0.95;0.95;;;;;;;;;;5096543;28;20203;-46
2021/08/09 03:13:49;;;;;;;0.80;0.80;;;;;;;;;;5094006;28;20557;-46
2021/08/09 03:16:16;;;;;;;1.98;1.00;;;;;;;;;;5092418;28;20204;-47
2021/08/09 03:18:43;;;;;;;1.48;1.25;;;;;;;;;;5095773;28;20209;-47
2021/08/09 03:21:09;;;;;;;0.77;0.77;;;;;;;;;;5084754;28;20233;-47
2021/08/09 03:23:35;;;;;;;0.80;0.80;;;;;;;;;;5076655;28;20174;-47
2021/08/09 03:26:01;;;;;;;2.25;0.77;;;;;;;;;;5093590;28;20269;-46
2021/08/09 03:28:27;;;;;;;1.10;0.80;;;;;;;;;;5094195;28;20182;-46
2021/08/09 03:30:53;;;;;;;1.55;0.80;;;;;;;;;;5095110;28;20199;-46
2021/08/09 03:33:19;;;;;;;1.08;0.80;;;;;;;;;;5096865;28;20561;-46
2021/08/09 03:35:45;;;;;;;1.30;1.20;;;;;;;;;;5096135;28;20186;-46
2021/08/09 03:38:11;;;;;;;3.63;1.20;;;;;;;;;;5078267;28;20214;-46
2021/08/09 03:40:38;;;;;;;1.67;0.90;;;;;;;;;;5077536;28;20201;-46
2021/08/09 03:43:04;;;;;;;1.30;0.68;;;;;;;;;;5089443;28;20178;-46
2021/08/09 03:45:31;;;;;;;1.02;0.93;;;;;;;;;;5087558;28;20171;-46
2021/08/09 03:47:57;;;;;;;1.05;0.95;;;;;;;;;;5075495;28;20163;-46
2021/08/09 03:50:23;;;;;;;0.73;0.73;;;;;;;;;;5087706;28;20264;-47
2021/08/09 03:52:50;;;;;;;1.30;1.13;;;;;;;;;;5084961;28;20174;-47
2021/08/09 03:55:16;;;;;;;3.00;1.00;;;;;;;;;;5083618;28;20182;-47
2021/08/09 03:57:42;;;;;;;5.45;1.00;;;;;;;;;;5075773;28;20994;-46
2021/08/09 04:00:08;;;;;;;0.95;0.93;;;;;;;;;;5095956;28;20170;-46
2021/08/09 04:02:36;;;;;;;4.30;1.20;;;;;;;;;;5096317;28;20186;-47
2021/08/09 04:05:02;;;;;;;2.55;1.17;;;;;;;;;;5083760;28;20639;-47
2021/08/09 04:07:28;;;;;;;4.78;1.65;;;;;;;;;;5090583;28;20186;-47
2021/08/09 04:09:54;;;;;;;1.08;0.95;;;;;;;;;;5086009;28;20219;-47
2021/08/09 04:12:23;;;;;;;2.47;0.90;;;;;;;;;;5083651;28;20253;-47
2021/08/09 04:14:49;;;;;;;1.20;1.10;;;;;;;;;;5086504;28;20178;-47
2021/08/09 04:17:15;;;;;;;1.40;0.90;;;;;;;;;;5087540;28;20623;-47
2021/08/09 04:19:41;;;;;;;2.35;0.90;;;;;;;;;;5075772;28;20170;-47
2021/08/09 04:22:08;;;;;;;2.65;1.05;;;;;;;;;;5075189;28;20170;-46
2021/08/09 04:24:34;;;;;;;2.03;0.90;;;;;;;;;;5075623;28;20194;-47
2021/08/09 04:27:00;;;;;;;1.00;0.90;;;;;;;;;;5075011;28;20210;-47
2021/08/09 04:29:26;;;;;;;2.17;0.90;;;;;;;;;;5075215;28;20229;-47
2021/08/09 04:31:52;;;;;;;1.55;1.00;;;;;;;;;;5075108;28;20229;-47
2021/08/09 04:34:18;;;;;;;4.43;1.20;;;;;;;;;;5084695;28;20231;-46
2021/08/09 04:36:44;;;;;;;1.48;0.90;;;;;;;;;;5092235;28;20178;-47
2021/08/09 04:39:10;;;;;;;1.48;1.00;;;;;;;;;;5074762;28;20163;-46
2021/08/09 04:41:36;;;;;;;1.35;0.90;;;;;;;;;;5080426;28;20182;-47
2021/08/09 04:44:02;;;;;;;1.10;1.00;;;;;;;;;;5078022;28;20175;-47
2021/08/09 04:46:28;;;;;;;1.50;1.02;;;;;;;;;;5080254;28;20239;-46
2021/08/09 04:48:54;;;;;;;0.93;0.88;;;;;;;;;;5089115;28;20177;-47
2021/08/09 04:51:20;;;;;;;1.77;1.13;;;;;;;;;;5073293;28;20182;-47
2021/08/09 04:53:46;;;;;;;1.40;1.30;;;;;;;;;;5080440;28;20265;-47
2021/08/09 04:56:12;;;;;;;3.33;1.70;;;;;;;;;;5077742;28;20217;-47
2021/08/09 04:58:38;;;;;;;3.60;1.80;;;;;;;;;;5073668;28;20205;-47
2021/08/09 05:01:04;;;;;;;4.53;1.90;;;;;;;;;;5074824;28;20205;-47
2021/08/09 05:03:36;;;;;;;4.82;1.88;;;;;;;;;;5082991;28;20311;-46
2021/08/09 05:06:02;;;;;;;2.10;1.80;;;;;;;;;;5084015;28;20190;-46
2021/08/09 05:08:28;;;;;;;2.00;1.60;;;;;;;;;;5078138;28;20194;-47
2021/08/09 05:10:54;;;;;;;1.67;1.58;;;;;;;;;;5094428;28;20174;-47
2021/08/09 05:13:20;;;;;;;2.15;1.48;;;;;;;;;;5084211;28;20303;-47
2021/08/09 05:15:46;;;;;;;2.10;1.30;;;;;;;;;;5079490;28;20427;-47
2021/08/09 05:18:13;;;;;;;2.33;1.92;;;;;;;;;;5093630;28;20253;-47
2021/08/09 05:20:40;;;;;;;1.85;1.40;;;;;;;;;;5099856;28;20241;-47
2021/08/09 05:23:06;;;;;;;4.88;1.60;;;;;;;;;;5082532;28;20205;-47
2021/08/09 05:25:33;;;;;;;4.20;1.60;;;;;;;;;;5092229;28;20177;-47
2021/08/09 05:27:59;;;;;;;1.50;1.40;;;;;;;;;;5093733;28;20171;-47
2021/08/09 05:30:25;;;;;;;2.55;1.88;;;;;;;;;;5094706;28;20170;-47
2021/08/09 05:32:51;;;;;;;2.85;1.50;;;;;;;;;;5094909;28;20177;-47
2021/08/09 05:35:18;;;;;;;1.52;1.42;;;;;;;;;;5087569;28;20182;-47
2021/08/09 05:37:44;;;;;;;1.65;1.48;;;;;;;;;;5077950;28;20469;-47
2021/08/09 05:40:10;;;;;;;2.13;1.30;;;;;;;;;;5082667;28;20178;-47
2021/08/09 05:42:36;;;;;;;1.42;1.33;;;;;;;;;;5074775;28;20235;-47
2021/08/09 05:45:03;;;;;;;2.15;1.40;;;;;;;;;;5092303;28;20181;-47
2021/08/09 05:47:29;;;;;;;2.50;1.50;;;;;;;;;;5093995;28;20613;-47
2021/08/09 05:49:56;;;;;;;3.17;1.70;;;;;;;;;;5090811;28;20193;-47
2021/08/09 05:52:23;;;;;;;3.00;1.40;;;;;;;;;;5077010;28;20257;-47
2021/08/09 05:54:49;;;;;;;2.00;1.40;;;;;;;;;;5083539;28;20182;-47
2021/08/09 05:57:15;;;;;;;3.33;1.55;;;;;;;;;;5074045;28;20206;-47
2021/08/09 05:59:41;;;;;;;2.58;1.33;;;;;;;;;;5091634;28;20178;-47
2021/08/09 06:02:07;;;;;;;1.38;1.25;;;;;;;;;;5092696;28;20550;-47
2021/08/09 06:04:34;;;;;;;1.75;1.60;;;;;;;;;;5093170;28;20181;-47
2021/08/09 06:07:00;;;;;;;1.60;1.30;;;;;;;;;;5082691;28;20280;-47
2021/08/09 06:09:26;;;;;;;2.80;1.60;;;;;;;;;;5081943;28;20199;-47
2021/08/09 06:11:52;;;;;;;1.17;1.15;;;;;;;;;;5096710;28;20244;-47
2021/08/09 06:14:18;;;;;;;1.23;1.10;;;;;;;;;;5081477;28;20277;-47
2021/08/09 06:16:44;;;;;;;2.17;1.35;;;;;;;;;;5090675;28;20250;-47
2021/08/09 06:19:10;;;;;;;1.13;1.10;;;;;;;;;;5090587;28;20593;-47
2021/08/09 06:21:36;;;;;;;5.00;1.30;;;;;;;;;;5077224;28;20224;-47
2021/08/09 06:24:02;;;;;;;1.33;1.23;;;;;;;;;;5090926;28;20175;-47
2021/08/09 06:26:27;;;;;;;1.42;1.33;;;;;;;;;;5097742;28;20170;-47
2021/08/09 06:28:53;;;;;;;3.53;1.55;;;;;;;;;;5097487;28;20773;-47
2021/08/09 06:31:19;;;;;;;3.30;1.58;;;;;;;;;;5089919;28;20221;-47
2021/08/09 06:33:45;;;;;;;2.85;1.65;;;;;;;;;;5087378;28;20186;-47
2021/08/09 06:36:13;;;;;;;2.33;1.50;;;;;;;;;;5097783;28;20176;-47
2021/08/09 06:38:39;;;;;;;1.52;1.30;;;;;;;;;;5084718;28;20201;-47
2021/08/09 06:41:05;;;;;;;4.07;1.33;;;;;;;;;;5096871;28;20185;-47
2021/08/09 06:43:31;;;;;;;1.63;1.52;;;;;;;;;;5091933;28;20173;-47
2021/08/09 06:45:57;;;;;;;2.33;1.35;;;;;;;;;;5077581;28;20159;-46
2021/08/09 06:48:25;;;;;;;3.10;1.70;;;;;;;;;;5086723;28;20610;-47
2021/08/09 06:50:52;;;;;;;3.45;1.65;;;;;;;;;;5096966;28;20178;-47
2021/08/09 06:53:18;;;;;;;1.65;1.20;;;;;;;;;;5086853;28;20274;-47
2021/08/09 06:55:44;;;;;;;3.67;1.20;;;;;;;;;;5090602;28;20445;-47
2021/08/09 06:58:10;;;;;;;1.58;1.33;;;;;;;;;;5096855;28;20205;-47
2021/08/09 07:00:36;;;;;;;1.73;1.20;;;;;;;;;;5096290;28;20185;-47
2021/08/09 07:03:06;;;;;;;2.70;1.40;;;;;;;;;;5084834;28;20262;-46
2021/08/09 07:05:38;;;;;;;2.95;1.35;;;;;;;;;;5076834;28;20190;-47
2021/08/09 07:08:04;;;;;;;3.45;1.08;;;;;;;;;;5083295;28;20549;-47
2021/08/09 07:10:30;;;;;;;2.63;1.33;;;;;;;;;;5091901;28;20560;-47
2021/08/09 07:12:56;;;;;;;2.55;1.33;;;;;;;;;;5096122;28;20182;-47
2021/08/09 07:15:22;;;;;;;1.85;1.13;;;;;;;;;;5086124;28;20193;-47
2021/08/09 07:17:48;;;;;;;2.55;1.50;;;;;;;;;;5095112;28;20206;-47
2021/08/09 07:20:15;;;;;;;1.50;1.15;;;;;;;;;;5089933;28;20240;-47
2021/08/09 07:22:44;;;;;;;3.03;1.27;;;;;;;;;;5079549;28;20503;-47
2021/08/09 07:25:11;;;;;;;1.98;1.38;;;;;;;;;;5084977;28;20174;-47
2021/08/09 07:27:37;;;;;;;2.80;1.30;;;;;;;;;;5075960;28;20166;-47
2021/08/09 07:30:09;;;;;;;1.35;1.10;;;;;;;;;;5094458;28;20184;-47
2021/08/09 07:32:35;;;;;;;2.45;1.20;;;;;;;;;;5093476;28;20166;-47
2021/08/09 07:35:01;;;;;;;1.73;1.20;;;;;;;;;;5076294;28;20210;-46
2021/08/09 07:37:27;;;;;;;2.33;1.25;;;;;;;;;;5076017;28;20674;-47
2021/08/09 07:39:53;;;;;;;1.75;1.30;;;;;;;;;;5085565;28;20175;-47
2021/08/09 07:42:19;;;;;;;3.45;1.48;;;;;;;;;;5076458;28;20178;-47
2021/08/09 07:44:45;;;;;;;3.53;1.30;;;;;;;;;;5092277;28;20170;-47
2021/08/09 07:47:11;;;;;;;1.50;1.40;;;;;;;;;;5095701;28;20173;-47
2021/08/09 07:49:37;;;;;;;3.30;1.30;;;;;;;;;;5095127;28;20174;-47
2021/08/09 07:52:03;;;;;;;2.30;1.33;;;;;;;;;;5084065;28;20173;-47
2021/08/09 07:54:29;;;;;;;2.38;1.15;;;;;;;;;;5076649;28;20262;-47
2021/08/09 07:57:00;;;;;;;1.58;1.05;;;;;;;;;;5084506;28;20300;-47
2021/08/09 07:59:26;;;;;;;3.83;1.50;;;;;;;;;;5096183;28;20174;-47
2021/08/09 08:01:52;;;;;;;2.15;1.25;;;;;;;;;;5095354;28;20211;-47
2021/08/09 08:04:19;;;;;;;2.83;1.30;;;;;;;;;;5094416;28;20223;-47
2021/08/09 08:06:45;;;;;;;1.80;1.15;;;;;;;;;;5076678;28;20182;-47
2021/08/09 08:09:11;;;;;;;1.48;1.20;;;;;;;;;;5079056;28;20182;-47
2021/08/09 08:11:37;;;;;;;2.08;1.27;;;;;;;;;;5074921;28;20182;-47
2021/08/09 08:14:03;;;;;;;2.17;1.10;;;;;;;;;;5089761;28;20205;-47
2021/08/09 08:16:30;;;;;;;2.72;1.30;;;;;;;;;;5085477;28;20205;-47
2021/08/09 08:18:56;;;;;;;3.67;1.33;;;;;;;;;;5088797;28;20285;-47
2021/08/09 08:21:21;;;;;;;1.85;1.00;;;;;;;;;;5078653;28;20281;-47
2021/08/09 08:23:48;;;;;;;1.42;1.23;;;;;;;;;;5087788;28;20178;-47
2021/08/09 08:26:14;;;;;;;3.17;1.50;;;;;;;;;;5108807;28;20177;-47
2021/08/09 08:28:40;;;;;;;2.97;1.45;;;;;;;;;;5105981;28;20180;-47
2021/08/09 08:31:06;;;;;;;2.45;1.35;;;;;;;;;;5075272;28;20440;-47
2021/08/09 08:33:32;;;;;;;1.70;1.38;;;;;;;;;;5074681;28;20596;-47
2021/08/09 08:35:58;;;;;;;1.52;1.10;;;;;;;;;;5083199;28;20186;-47
2021/08/09 08:38:24;;;;;;;3.03;1.38;;;;;;;;;;5082995;28;20213;-47
2021/08/09 08:40:51;;;;;;;3.28;1.30;;;;;;;;;;5091755;28;20193;-47
2021/08/09 08:43:20;;;;;;;2.22;1.13;;;;;;;;;;5092834;28;20212;-47
2021/08/09 08:45:47;;;;;;;3.13;1.15;;;;;;;;;;5087622;28;20167;-47
2021/08/09 08:48:40;;;;;;;3.95;1.50;;;;;;;;;;5053313;28;20299;-49
2021/08/09 08:51:06;;;;;;;3.20;1.30;;;;;;;;;;5033048;28;20263;-49
2021/08/09 08:53:33;;;;;;;4.68;1.40;;;;;;;;;;5025053;28;20192;-49
2021/08/09 08:55:59;;;;;;;2.80;1.33;;;;;;;;;;5044454;28;20254;-49
2021/08/09 08:58:25;;;;;;;3.42;1.63;;;;;;;;;;5031675;28;20175;-49
2021/08/09 09:00:52;;;;;;;2.60;1.48;;;;;;;;;;5035560;28;20777;-49
2021/08/09 09:03:19;;;;;;;3.92;1.40;;;;;;;;;;5027165;28;20172;-49
2021/08/09 09:06:01;;;;;;;5.03;1.40;;;;;;;;;;5038230;28;20183;-49
2021/08/09 09:08:40;;;;;;;2.30;1.30;;;;;;;;;;5020436;28;20216;-49
2021/08/09 09:11:07;;;;;;;3.90;1.40;;;;;;;;;;5010868;28;20572;-49
2021/08/09 09:13:33;;;;;;;6.15;1.50;;;;;;;;;;5021756;28;20180;-49
2021/08/09 09:16:03;;;;;;;6.85;1.60;;;;;;;;;;5013373;28;20182;-48
2021/08/09 09:18:48;;;;;;;4.28;1.35;;;;;;;;;;5027089;28;20180;-48
2021/08/09 09:21:23;;;;;;;4.85;1.35;;;;;;;;;;5014071;28;20193;-48
2021/08/09 09:23:49;;;;;;;2.00;1.25;;;;;;;;;;5009904;28;20184;-48
2021/08/09 09:26:19;;;;;;;3.45;1.42;;;;;;;;;;5020114;28;20180;-48
2021/08/09 09:28:45;;;;;;;4.97;1.30;;;;;;;;;;5010940;28;20173;-48
2021/08/09 09:31:25;;;;;;;2.97;1.63;;;;;;;;;;5011517;28;20179;-48
2021/08/09 09:33:51;;;;;;;3.53;1.40;;;;;;;;;;5011234;28;20191;-48
2021/08/09 09:36:21;;;;;;;2.03;1.25;;;;;;;;;;5013507;28;20235;-48
2021/08/09 09:38:49;;;;;;;3.22;1.40;;;;;;;;;;5012216;28;20331;-48
2021/08/09 09:41:14;;;;;;;3.65;1.40;;;;;;;;;;4991837;28;20408;-48
2021/08/09 09:43:42;;;;;;;1.77;1.60;;;;;;;;;;5013377;28;20191;-48
2021/08/09 09:46:21;;;;;;;3.78;1.45;;;;;;;;;;5011211;28;20184;-48
2021/08/09 09:48:47;;;;;;;8.13;1.35;;;;;;;;;;5021649;28;20283;-48
2021/08/09 09:51:14;;;;;;;1.60;1.30;;;;;;;;;;5013213;28;20208;-48
2021/08/09 09:53:41;;;;;;;1.90;1.23;;;;;;;;;;5010050;28;20239;-48
2021/08/09 09:56:07;;;;;;;5.38;1.17;;;;;;;;;;5025565;28;20180;-49
2021/08/09 09:58:34;;;;;;;2.65;1.30;;;;;;;;;;5018813;28;20273;-49
2021/08/09 10:01:00;;;;;;;3.42;1.30;;;;;;;;;;5006039;28;20275;-49
2021/08/09 10:03:26;;;;;;;4.10;1.38;;;;;;;;;;4998033;28;20272;-49
2021/08/09 10:05:52;;;;;;;1.23;1.02;;;;;;;;;;4997900;28;20231;-49
2021/08/09 10:08:19;;;;;;;5.38;1.48;;;;;;;;;;4996692;28;20215;-48
2021/08/09 10:10:52;;;;;;;1.35;1.10;;;;;;;;;;4981658;28;20181;-47
2021/08/09 10:13:20;;;;;;;3.65;1.10;;;;;;;;;;4981974;28;20269;-50
2021/08/09 10:15:51;;;;;;;2.05;1.15;;;;;;;;;;5001209;28;20433;-49
2021/08/09 10:18:23;;;;;;;1.63;1.17;;;;;;;;;;4996951;28;20181;-42
2021/08/09 10:20:50;;;;;;;2.70;1.42;;;;;;;;;;4997125;28;20177;-42
2021/08/09 10:23:34;;;;;;;1.65;1.10;;;;;;;;;;4997195;28;20173;-42
2021/08/09 10:26:00;;;;;;;2.10;1.10;;;;;;;;;;5015333;28;20825;-42
2021/08/09 10:28:45;;;;;;;1.70;1.10;;;;;;;;;;5011730;28;20224;-42
2021/08/09 10:31:24;;;;;;;1.95;1.08;;;;;;;;;;4997222;28;20169;-42
2021/08/09 10:33:51;;;;;;;1.25;1.00;;;;;;;;;;4996245;28;20185;-42
2021/08/09 10:36:21;;;;;;;2.45;1.02;;;;;;;;;;4996989;28;20181;-42
2021/08/09 10:38:49;;;;;;;1.50;1.05;;;;;;;;;;4996031;28;20188;-42
2021/08/09 10:41:15;;;;;;;1.38;1.20;;;;;;;;;;4997240;28;20195;-42
2021/08/09 10:43:59;;;;;;;2.10;1.50;;;;;;;;;;4996988;28;20434;-42
2021/08/09 10:46:34;;;;;;;1.33;1.23;;;;;;;;;;4996662;28;20552;-42
2021/08/09 10:49:00;;;;;;;1.45;1.27;;;;;;;;;;4996394;28;20660;-42
2021/08/09 10:51:44;;;;;;;1.20;1.10;;;;;;;;;;4996560;28;20217;-42
2021/08/09 10:54:29;;;;;;;2.15;1.30;;;;;;;;;;4999701;28;20176;-42
2021/08/09 10:56:56;;;;;;;2.20;1.20;;;;;;;;;;5015886;28;20263;-42
2021/08/09 10:59:41;;;;;;;2.80;1.30;;;;;;;;;;5003775;28;20173;-42
2021/08/09 11:02:21;;;;;;;1.70;1.42;;;;;;;;;;4992653;28;20423;-42
2021/08/09 11:05:06;;;;;;;1.95;1.50;;;;;;;;;;4994544;28;20224;-42
2021/08/09 11:07:32;;;;;;;2.10;1.65;;;;;;;;;;4995187;28;20263;-42
2021/08/09 11:09:58;;;;;;;1.85;1.50;;;;;;;;;;5001736;28;20201;-42
2021/08/09 11:12:25;;;;;;;3.55;1.90;;;;;;;;;;5015793;28;20307;-42
2021/08/09 11:15:12;;;;;;;3.05;1.52;;;;;;;;;;5001060;28;20181;-42
2021/08/09 11:17:38;;;;;;;4.25;2.30;;;;;;;;;;4995471;28;20189;-42
2021/08/09 11:20:10;;;;;;;6.22;2.30;;;;;;;;;;4996457;28;20181;-42
2021/08/09 11:22:36;;;;;;;7.43;2.60;;;;;;;;;;4996006;28;20189;-42
2021/08/09 11:25:02;;;;;;;7.30;2.45;;;;;;;;;;4986313;28;20565;-42
2021/08/09 11:27:29;;;;;;;5.07;2.30;;;;;;;;;;5008185;28;20208;-42
2021/08/09 11:29:55;;;;;;;4.47;2.40;;;;;;;;;;4998943;28;20271;-42
2021/08/09 11:32:42;;;;;;;4.65;2.15;;;;;;;;;;4995320;28;20184;-42
2021/08/09 11:35:09;;;;;;;6.78;2.50;;;;;;;;;;4995588;28;20231;-42
2021/08/09 11:37:52;;;;;;;5.40;2.53;;;;;;;;;;4994027;28;20719;-42
2021/08/09 11:40:53;;;;;;;6.85;2.53;;;;;;;;;;4992848;28;20184;-42
2021/08/09 11:43:24;;;;;;;6.90;2.42;;;;;;;;;;4953717;29;20225;-42
2021/08/09 11:45:50;;;;;;;6.57;2.40;;;;;;;;;;4988686;28;20203;-42
2021/08/09 11:48:23;;;;;;;5.43;2.13;;;;;;;;;;5011957;28;20208;-42
2021/08/09 11:50:54;;;;;;;5.10;2.20;;;;;;;;;;5015510;28;20160;-42
2021/08/09 11:53:20;;;;;;;3.53;1.85;;;;;;;;;;5014748;28;20211;-42
2021/08/09 11:55:46;;;;;;;4.32;2.35;;;;;;;;;;5026773;28;20227;-42
2021/08/09 11:58:27;;;;;;;4.18;2.30;;;;;;;;;;5014980;28;20180;-42
2021/08/09 12:00:53;;;;;;;2.60;1.92;;;;;;;;;;4995444;28;20444;-42
2021/08/09 12:03:21;;;;;;;2.88;1.90;;;;;;;;;;5007954;28;20575;-42
2021/08/09 12:05:47;;;;;;;3.42;1.90;;;;;;;;;;5015124;28;20173;-42
2021/08/09 12:08:13;;;;;;;3.58;2.08;;;;;;;;;;5014411;28;20212;-42
2021/08/09 12:10:40;;;;;;;2.75;1.70;;;;;;;;;;5028485;28;20175;-42
2021/08/09 12:13:24;;;;;;;2.92;1.80;;;;;;;;;;5028714;28;20429;-42
2021/08/09 12:16:06;;;;;;;3.10;1.85;;;;;;;;;;4997541;28;20252;-42
2021/08/09 12:18:32;;;;;;;2.22;1.55;;;;;;;;;;5014649;28;20177;-42
2021/08/09 12:21:11;;;;;;;2.88;2.00;;;;;;;;;;5014782;28;20242;-42
2021/08/09 12:23:54;;;;;;;2.92;1.90;;;;;;;;;;5014447;28;20259;-42
2021/08/09 12:26:21;;;;;;;2.70;1.70;;;;;;;;;;5031195;28;20180;-42
2021/08/09 12:28:49;;;;;;;1.88;1.48;;;;;;;;;;5030541;28;20180;-42
2021/08/09 12:31:28;;;;;;;3.28;1.80;;;;;;;;;;5014873;28;20168;-42
2021/08/09 12:34:05;;;;;;;1.98;1.80;;;;;;;;;;5014579;28;20191;-42
2021/08/09 12:36:31;;;;;;;2.30;1.73;;;;;;;;;;5014702;28;20442;-42
2021/08/09 12:38:57;;;;;;;3.00;2.10;;;;;;;;;;5013549;28;20180;-42
2021/08/09 12:41:24;;;;;;;3.17;1.80;;;;;;;;;;5032000;28;20186;-42
2021/08/09 12:43:50;;;;;;;2.67;2.00;;;;;;;;;;5030438;28;20211;-42
2021/08/09 12:46:16;;;;;;;3.10;1.80;;;;;;;;;;5014300;28;20188;-42
2021/08/09 12:48:47;;;;;;;2.70;1.83;;;;;;;;;;5014146;28;20204;-42
2021/08/09 12:51:13;;;;;;;3.20;1.65;;;;;;;;;;5014347;28;20223;-42
2021/08/09 12:53:39;;;;;;;1.80;1.70;;;;;;;;;;5013527;28;20223;-42
2021/08/09 12:56:05;;;;;;;2.28;1.90;;;;;;;;;;5029210;28;20222;-42
2021/08/09 12:58:31;;;;;;;2.28;1.77;;;;;;;;;;5032573;28;20551;-42
2021/08/09 13:00:57;;;;;;;2.42;2.00;;;;;;;;;;5014317;28;20176;-42
2021/08/09 13:03:23;;;;;;;2.30;2.10;;;;;;;;;;5014327;28;20185;-42
2021/08/09 13:05:49;;;;;;;2.22;1.70;;;;;;;;;;5014155;28;20616;-42
2021/08/09 13:08:15;;;;;;;3.05;1.80;;;;;;;;;;5013316;28;20239;-42
2021/08/09 13:10:41;;;;;;;2.50;1.80;;;;;;;;;;5025706;28;20203;-42
2021/08/09 13:13:07;;;;;;;2.45;1.90;;;;;;;;;;5033902;28;20187;-42
2021/08/09 13:15:33;;;;;;;2.22;1.88;;;;;;;;;;5015928;28;20176;-42
2021/08/09 13:17:59;;;;;;;2.97;1.80;;;;;;;;;;5013874;28;20564;-42
2021/08/09 13:20:25;;;;;;;2.58;1.77;;;;;;;;;;5014076;28;20192;-42
2021/08/09 13:22:51;;;;;;;1.80;1.65;;;;;;;;;;5013895;28;20180;-42
2021/08/09 13:25:17;;;;;;;2.97;1.67;;;;;;;;;;5023190;28;20184;-42
2021/08/09 13:27:43;;;;;;;2.97;1.60;;;;;;;;;;5033242;28;20218;-42
2021/08/09 13:30:10;;;;;;;3.47;1.85;;;;;;;;;;5018191;28;20439;-42
2021/08/09 13:32:36;;;;;;;1.95;1.38;;;;;;;;;;5014285;28;20212;-42
2021/08/09 13:35:02;;;;;;;2.50;1.50;;;;;;;;;;5016921;28;20180;-42
2021/08/09 13:37:30;;;;;;;3.53;1.50;;;;;;;;;;5017172;28;20172;-42
2021/08/09 13:39:58;;;;;;;4.38;1.73;;;;;;;;;;5019346;28;20198;-42
2021/08/09 13:42:24;;;;;;;1.80;1.48;;;;;;;;;;5037693;28;20210;-42
2021/08/09 13:44:50;;;;;;;2.22;1.55;;;;;;;;;;5025073;28;20208;-42
2021/08/09 13:47:16;;;;;;;1.63;1.52;;;;;;;;;;5016976;28;20226;-42
2021/08/09 13:49:42;;;;;;;1.80;1.55;;;;;;;;;;5017313;28;20247;-42
2021/08/09 13:52:08;;;;;;;2.58;1.50;;;;;;;;;;5017285;28;20181;-42
2021/08/09 13:54:34;;;;;;;2.15;1.30;;;;;;;;;;5020028;28;20574;-42
2021/08/09 13:57:00;;;;;;;1.40;1.30;;;;;;;;;;5037048;28;20175;-42
2021/08/09 13:59:26;;;;;;;3.00;1.35;;;;;;;;;;5028105;28;20186;-42
2021/08/09 14:01:52;;;;;;;2.13;1.48;;;;;;;;;;5017320;28;20176;-42
2021/08/09 14:04:18;;;;;;;1.83;1.40;;;;;;;;;;5016770;28;20528;-42
2021/08/09 14:06:44;;;;;;;2.70;1.40;;;;;;;;;;5017253;28;20223;-42
2021/08/09 14:09:10;;;;;;;2.35;1.52;;;;;;;;;;5016397;28;20176;-42
2021/08/09 14:11:36;;;;;;;2.72;1.50;;;;;;;;;;5035939;28;20438;-42
2021/08/09 14:14:02;;;;;;;2.00;1.30;;;;;;;;;;5031601;28;20177;-42
2021/08/09 14:16:30;;;;;;;2.95;1.20;;;;;;;;;;5017092;28;20179;-42
2021/08/09 14:18:56;;;;;;;2.22;1.27;;;;;;;;;;5016356;28;20165;-42
2021/08/09 14:21:22;;;;;;;1.40;1.30;;;;;;;;;;5016916;28;20196;-42
2021/08/09 14:23:48;;;;;;;1.50;1.33;;;;;;;;;;5016634;28;20261;-42
2021/08/09 14:26:15;;;;;;;1.75;1.30;;;;;;;;;;5032643;28;20601;-42
2021/08/09 14:28:41;;;;;;;2.05;1.35;;;;;;;;;;5033670;28;20204;-42
2021/08/09 14:31:07;;;;;;;1.45;1.17;;;;;;;;;;5016867;28;20571;-42
2021/08/09 14:33:34;;;;;;;3.30;1.42;;;;;;;;;;5015334;28;20185;-42
2021/08/09 14:36:00;;;;;;;2.30;1.27;;;;;;;;;;5016692;28;20307;-42
2021/08/09 14:38:27;;;;;;;2.03;1.13;;;;;;;;;;5015480;28;20471;-42
2021/08/09 14:40:53;;;;;;;1.00;1.00;;;;;;;;;;5015948;28;20180;-42
2021/08/09 14:43:19;;;;;;;2.03;0.93;;;;;;;;;;5006984;28;20192;-42
2021/08/09 14:45:45;;;;;;;1.20;1.10;;;;;;;;;;5014655;28;20212;-42
2021/08/09 14:48:11;;;;;;;2.58;1.40;;;;;;;;;;4998113;28;20216;-42